Thursday, November 23, 2017, 1:33 PM EST
Back to Local

KJFK, Kennedy International Airport

Location: Rosedale, NY, United States Lat: 40.633
Local Time: 1:33 PM EST (18:33 GMT) Lon: -73.767
Time Zone: US/Eastern Elev: 13 ft

Show me the last for .
Show Decoded

2017-11-23 12:51 METAR KJFK 231751Z 31008KT 10SM FEW050 FEW300 06/M07 A3007 RMK AO2 SLP180
                 T00561067 10056 21006 56021 =
2017-11-23 11:51 METAR KJFK 231651Z VRB03KT 10SM FEW050 FEW300 04/M07 A3008 RMK AO2 SLP186
                 T00391067 =
2017-11-23 10:51 METAR KJFK 231551Z 36009KT 10SM FEW045 FEW300 04/M06 A3011 RMK AO2 SLP194
                 T00391061 =
2017-11-23 09:51 METAR KJFK 231451Z 35008KT 10SM FEW042 FEW300 03/M06 A3013 RMK AO2 SLP202
                 T00281061 50001 =
2017-11-23 08:51 METAR KJFK 231351Z 32008KT 10SM FEW038 FEW300 02/M06 A3013 RMK AO2 SLP204
                 T00221061 =
2017-11-23 07:51 METAR KJFK 231251Z 33004KT 10SM FEW035 FEW310 01/M06 A3013 RMK AO2 SLP203
                 T00061061 =
2017-11-23 06:51 METAR KJFK 231151Z 32007KT 10SM FEW035 FEW310 00/M07 A3012 RMK AO2 SLP200 70024
                 T00001067 10011 21006 53010 =
2017-11-23 05:51 METAR KJFK 231051Z 33009KT 10SM CLR 00/M07 A3010 RMK AO2 SLP192 T00001067 =
2017-11-23 04:51 METAR KJFK 230951Z 33012KT 10SM CLR 00/M07 A3009 RMK AO2 SLP188 T00001067 =
2017-11-23 03:51 METAR KJFK 230851Z 33011G19KT 10SM CLR 00/M07 A3009 RMK AO2 SLP190 T00001067
                 50004 =
2017-11-23 02:51 METAR KJFK 230751Z 32013KT 10SM CLR 01/M07 A3010 RMK AO2 SLP192 T00061067 =
2017-11-23 01:51 METAR KJFK 230651Z 32013KT 10SM CLR 01/M07 A3010 RMK AO2 SLP193 T00061067 =
2017-11-23 00:51 METAR KJFK 230551Z 32014G22KT 10SM FEW045 01/M07 A3008 RMK AO2 SLP186 T00111067
                 10056 20011 50001 =
2017-11-22 23:51 METAR KJFK 230451Z COR 31014KT 10SM FEW044 02/M06 A3010 RMK AO2 SLP191 T00171061
                 401220017 =
2017-11-22 22:51 METAR KJFK 230351Z 31018G23KT 10SM FEW040 02/M06 A3009 RMK AO2 SLP189 T00221056
                 =
2017-11-22 21:51 METAR KJFK 230251Z 31014G22KT 10SM FEW040 03/M05 A3008 RMK AO2 SLP185 T00281050
                 51023 =
2017-11-22 20:51 METAR KJFK 230151Z 30018G24KT 10SM FEW040 03/M04 A3006 RMK AO2 PK WND 30029/0057
                 SLP179 T00331044 =
2017-11-22 19:51 METAR KJFK 230051Z 31018G25KT 10SM FEW042 04/M03 A3005 RMK AO2 PK WND 30033/0020
                 SLP174 T00441033 =
2017-11-22 18:51 METAR KJFK 222351Z 32015G27KT 10SM BKN042 06/M03 A3001 RMK AO2 PK WND 30028/2253
                 SLP163 T00561028 10122 20056 51026 =
2017-11-22 17:51 METAR KJFK 222251Z 31019KT 10SM SCT042 06/M02 A2999 RMK AO2 PK WND 30031/2200
                 SLP156 T00611022 =
2017-11-22 16:51 METAR KJFK 222151Z 32022G31KT 10SM SCT042 SCT250 07/M01 A2997 RMK AO2 PK WND
                 31031/2143 SLP147 T00721011 =
2017-11-22 15:51 METAR KJFK 222051Z 31022G26KT 10SM SCT041 SCT250 09/01 A2994 RMK AO2 PK WND
                 30027/2037 SLP137 T00940006 53021 =
2017-11-22 14:51 METAR KJFK 221951Z 30017G21KT 10SM BKN037 BKN048 11/04 A2990 RMK AO2 PK WND
                 30027/1920 SLP123 T01060039 =
2017-11-22 13:51 METAR KJFK 221851Z 30019KT 10SM FEW026 BKN033 BKN100 11/04 A2988 RMK AO2 PK WND
                 31027/1829 SLP118 T01110044 =

Support USWX by starting your Amazon purchase here.